createdAt,value
2017-05-19T00:00:51.498Z,0
2017-05-19T00:01:51.389Z,0
2017-05-19T00:02:51.509Z,0
2017-05-19T00:03:51.500Z,0
2017-05-19T00:04:50.890Z,0
2017-05-19T00:05:51.486Z,0
2017-05-19T00:06:51.183Z,0
2017-05-19T00:07:51.486Z,0
2017-05-19T00:08:51.481Z,0
2017-05-19T00:09:51.486Z,0
2017-05-19T00:10:51.171Z,0
2017-05-19T00:11:51.482Z,0
2017-05-19T00:12:51.172Z,0
2017-05-19T00:13:51.475Z,0
2017-05-19T00:14:51.163Z,0
2017-05-19T00:15:50.857Z,0
2017-05-19T00:16:51.466Z,0
2017-05-19T00:17:51.520Z,0
2017-05-19T00:18:51.159Z,0
2017-05-19T00:19:51.460Z,0
2017-05-19T00:20:51.464Z,0
2017-05-19T00:21:51.459Z,0
2017-05-19T00:22:51.460Z,0
2017-05-19T00:23:51.458Z,0
2017-05-19T00:24:51.446Z,0
2017-05-19T00:25:50.839Z,0
2017-05-19T00:26:51.443Z,0
2017-05-19T00:27:51.203Z,0
2017-05-19T00:28:51.440Z,0
2017-05-19T00:29:51.443Z,0
2017-05-19T00:30:51.131Z,0
2017-05-19T00:31:51.440Z,0
2017-05-19T00:32:51.444Z,0
2017-05-19T00:33:51.132Z,0
2017-05-19T00:34:51.433Z,0
2017-05-19T00:35:51.426Z,0
2017-05-19T00:36:50.516Z,0
2017-05-19T00:37:51.477Z,0
2017-05-19T00:38:51.421Z,0
2017-05-19T00:39:51.479Z,0
2017-05-19T00:40:51.423Z,0
2017-05-19T00:41:51.421Z,0
2017-05-19T00:42:51.428Z,0
2017-05-19T00:43:51.410Z,0
2017-05-19T00:44:51.416Z,0
2017-05-19T00:45:51.408Z,0
2017-05-19T00:46:51.103Z,0
2017-05-19T00:47:50.864Z,0
2017-05-19T00:48:51.099Z,0
2017-05-19T00:49:51.404Z,0
2017-05-19T00:50:51.401Z,0
2017-05-19T00:51:51.092Z,0
2017-05-19T00:52:51.399Z,0
2017-05-19T00:53:51.095Z,0
2017-05-19T00:54:51.401Z,0
2017-05-19T00:55:51.084Z,0
2017-05-19T00:56:51.084Z,0
2017-05-19T00:57:51.092Z,0
2017-05-19T00:58:51.079Z,0
2017-05-19T00:59:50.767Z,0
2017-05-19T01:00:51.380Z,0
2017-05-19T01:01:51.377Z,0
2017-05-19T01:02:51.381Z,0
2017-05-19T01:03:51.375Z,0
2017-05-19T01:04:51.380Z,0
2017-05-19T01:05:51.369Z,0
2017-05-19T01:06:51.366Z,0
2017-05-19T01:07:51.382Z,0
2017-05-19T01:08:51.365Z,0
2017-05-19T01:09:51.063Z,0
2017-05-19T01:10:51.057Z,0
2017-05-19T01:11:51.366Z,0
2017-05-19T01:12:51.363Z,0
2017-05-19T01:13:51.359Z,0
2017-05-19T01:14:51.052Z,0
2017-05-19T01:15:51.349Z,0
2017-05-19T01:16:51.349Z,0
2017-05-19T01:17:51.350Z,0
2017-05-19T01:18:51.338Z,0
2017-05-19T01:19:51.035Z,0
2017-05-19T01:20:51.338Z,0
2017-05-19T01:21:51.334Z,0
2017-05-19T01:22:51.333Z,0
2017-05-19T01:23:51.336Z,0
2017-05-19T01:24:51.028Z,0
2017-05-19T01:25:51.022Z,0
2017-05-19T01:26:51.020Z,0
2017-05-19T01:27:51.023Z,0
2017-05-19T01:28:51.023Z,0
2017-05-19T01:29:51.376Z,0
2017-05-19T01:30:51.319Z,0
2017-05-19T01:31:51.324Z,0
2017-05-19T01:32:51.005Z,0
2017-05-19T01:33:51.312Z,0
2017-05-19T01:34:51.312Z,0
2017-05-19T01:35:51.310Z,0
2017-05-19T01:36:51.302Z,0
2017-05-19T01:37:50.996Z,0
2017-05-19T01:38:51.313Z,0
2017-05-19T01:39:50.991Z,0
2017-05-19T01:40:51.028Z,0
2017-05-19T01:41:51.295Z,0
2017-05-19T01:42:51.291Z,0
2017-05-19T01:43:50.985Z,0
2017-05-19T01:44:51.285Z,0
2017-05-19T01:45:50.982Z,0
2017-05-19T01:46:50.980Z,0
2017-05-19T01:47:50.370Z,0
2017-05-19T01:48:51.277Z,0
2017-05-19T01:49:51.279Z,0
2017-05-19T01:50:51.276Z,0
2017-05-19T01:51:51.272Z,0
2017-05-19T01:52:51.270Z,0
2017-05-19T01:53:51.267Z,0
2017-05-19T01:54:51.271Z,0
2017-05-19T01:55:51.267Z,0
2017-05-19T01:56:51.262Z,0
2017-05-19T01:57:51.264Z,0
2017-05-19T01:58:50.649Z,0
2017-05-19T01:59:50.956Z,0
2017-05-19T02:00:50.947Z,0
2017-05-19T02:01:50.945Z,0
2017-05-19T02:02:51.252Z,0
2017-05-19T02:03:51.256Z,0
2017-05-19T02:04:51.244Z,0
2017-05-19T02:05:50.936Z,0
2017-05-19T02:06:50.932Z,0
2017-05-19T02:07:51.244Z,0
2017-05-19T02:08:51.243Z,0
2017-05-19T02:09:51.243Z,0
2017-05-19T02:10:50.932Z,0
2017-05-19T02:11:51.235Z,0
2017-05-19T02:12:51.227Z,0
2017-05-19T02:13:50.919Z,0
2017-05-19T02:14:51.221Z,0
2017-05-19T02:15:50.916Z,0
2017-05-19T02:16:50.910Z,0
2017-05-19T02:17:51.219Z,0
2017-05-19T02:18:51.215Z,0
2017-05-19T02:19:51.214Z,0
2017-05-19T02:20:51.211Z,0
2017-05-19T02:21:51.265Z,0
2017-05-19T02:22:51.205Z,0
2017-05-19T02:23:51.265Z,0
2017-05-19T02:24:51.202Z,0
2017-05-19T02:25:51.201Z,0
2017-05-19T02:26:50.281Z,0
2017-05-19T02:27:51.196Z,0
2017-05-19T02:28:50.938Z,0
2017-05-19T02:29:50.886Z,0
2017-05-19T02:30:50.579Z,0
2017-05-19T02:31:51.193Z,0
2017-05-19T02:32:51.183Z,0
2017-05-19T02:33:50.877Z,0
2017-05-19T02:34:51.182Z,0
2017-05-19T02:35:50.875Z,0
2017-05-19T02:36:50.869Z,0
2017-05-19T02:37:51.194Z,0
2017-05-19T02:38:51.168Z,0
2017-05-19T02:39:50.862Z,0
2017-05-19T02:40:51.168Z,0
2017-05-19T02:41:51.164Z,0
2017-05-19T02:42:51.163Z,0
2017-05-19T02:43:51.165Z,0
2017-05-19T02:44:50.851Z,0
2017-05-19T02:45:50.848Z,0
2017-05-19T02:46:50.904Z,0
2017-05-19T02:47:51.155Z,0
2017-05-19T02:48:51.158Z,0
2017-05-19T02:49:51.147Z,0
2017-05-19T02:50:50.837Z,0
2017-05-19T02:51:51.146Z,0
2017-05-19T02:52:50.837Z,0
2017-05-19T02:53:50.829Z,0
2017-05-19T02:54:50.532Z,0
2017-05-19T02:55:51.131Z,0
2017-05-19T02:56:51.136Z,0
2017-05-19T02:57:51.130Z,0
2017-05-19T02:58:51.125Z,0
2017-05-19T02:59:51.122Z,0
2017-05-19T03:00:51.120Z,0
2017-05-19T03:01:51.117Z,0
2017-05-19T03:02:50.821Z,0
2017-05-19T03:03:51.120Z,0
2017-05-19T03:04:50.806Z,0
2017-05-19T03:05:50.808Z,0
2017-05-19T03:06:50.495Z,0
2017-05-19T03:07:51.112Z,0
2017-05-19T03:08:51.104Z,0
2017-05-19T03:09:51.106Z,0
2017-05-19T03:10:51.095Z,0
2017-05-19T03:11:51.096Z,0
2017-05-19T03:12:50.787Z,0
2017-05-19T03:13:51.092Z,0
2017-05-19T03:14:50.788Z,0
2017-05-19T03:15:50.778Z,0
2017-05-19T03:16:51.139Z,0
2017-05-19T03:17:51.088Z,0
2017-05-19T03:18:51.080Z,0
2017-05-19T03:19:50.770Z,0
2017-05-19T03:20:51.080Z,0
2017-05-19T03:21:51.073Z,0
2017-05-19T03:22:50.465Z,0
2017-05-19T03:23:50.455Z,0
2017-05-19T03:24:51.073Z,0
2017-05-19T03:25:50.454Z,0
2017-05-19T03:26:51.059Z,0
2017-05-19T03:27:51.063Z,0
2017-05-19T03:28:51.062Z,0
2017-05-19T03:29:51.054Z,0
2017-05-19T03:30:51.108Z,0
2017-05-19T03:31:50.751Z,0
2017-05-19T03:32:51.051Z,0
2017-05-19T03:33:51.045Z,0
2017-05-19T03:34:51.047Z,0
2017-05-19T03:35:50.739Z,0
2017-05-19T03:36:50.730Z,0
2017-05-19T03:37:51.041Z,0
2017-05-19T03:38:50.421Z,0
2017-05-19T03:39:51.032Z,0
2017-05-19T03:40:51.027Z,0
2017-05-19T03:41:50.923Z,0
2017-05-19T03:42:50.413Z,0
2017-05-19T03:43:51.029Z,0
2017-05-19T03:44:51.019Z,0
2017-05-19T03:45:51.019Z,0
2017-05-19T03:46:51.015Z,0
2017-05-19T03:47:50.405Z,5
2017-05-19T03:48:50.711Z,5
2017-05-19T03:49:51.011Z,5
2017-05-19T03:50:50.700Z,5
2017-05-19T03:51:51.008Z,5
2017-05-19T03:52:50.697Z,5
2017-05-19T03:53:50.690Z,5
2017-05-19T03:54:50.387Z,5
2017-05-19T03:55:50.685Z,5
2017-05-19T03:56:50.991Z,10
2017-05-19T03:57:50.994Z,10
2017-05-19T03:58:50.681Z,10
2017-05-19T03:59:50.985Z,10
2017-05-19T04:00:50.679Z,10
2017-05-19T04:01:50.367Z,10
2017-05-19T04:02:50.681Z,10
2017-05-19T04:03:50.671Z,10
2017-05-19T04:04:50.973Z,10
2017-05-19T04:05:51.014Z,10
2017-05-19T04:06:50.965Z,10
2017-05-19T04:07:50.965Z,10
2017-05-19T04:08:51.028Z,10
2017-05-19T04:09:50.652Z,10
2017-05-19T04:10:50.658Z,10
2017-05-19T04:11:50.956Z,10
2017-05-19T04:12:51.006Z,10
2017-05-19T04:13:50.655Z,10
2017-05-19T04:14:50.949Z,10
2017-05-19T04:15:50.949Z,10
2017-05-19T04:16:50.997Z,10
2017-05-19T04:17:50.943Z,10
2017-05-19T04:18:50.332Z,10
2017-05-19T04:19:50.938Z,15
2017-05-19T04:20:50.626Z,15
2017-05-19T04:21:50.623Z,15
2017-05-19T04:22:50.937Z,15
2017-05-19T04:23:50.015Z,15
2017-05-19T04:24:50.984Z,15
2017-05-19T04:25:50.924Z,15
2017-05-19T04:26:50.917Z,15
2017-05-19T04:27:50.616Z,15
2017-05-19T04:28:50.923Z,15
2017-05-19T04:29:50.911Z,15
2017-05-19T04:30:50.957Z,15
2017-05-19T04:31:50.599Z,15
2017-05-19T04:32:50.605Z,15
2017-05-19T04:33:50.293Z,20
2017-05-19T04:34:50.899Z,20
2017-05-19T04:35:50.900Z,20
2017-05-19T04:36:50.894Z,25
2017-05-19T04:37:50.895Z,25
2017-05-19T04:38:50.897Z,25
2017-05-19T04:39:50.586Z,25
2017-05-19T04:40:50.585Z,20
2017-05-19T04:41:50.580Z,20
2017-05-19T04:42:50.580Z,20
2017-05-19T04:43:50.881Z,20
2017-05-19T04:44:50.881Z,20
2017-05-19T04:45:50.268Z,20
2017-05-19T04:46:50.882Z,20
2017-05-19T04:47:50.881Z,20
2017-05-19T04:48:50.873Z,20
2017-05-19T04:49:50.867Z,20
2017-05-19T04:50:50.869Z,20
2017-05-19T04:51:50.859Z,20
2017-05-19T04:52:50.867Z,25
2017-05-19T04:53:50.567Z,25
2017-05-19T04:54:50.548Z,25
2017-05-19T04:55:50.847Z,20
2017-05-19T04:56:50.848Z,20
2017-05-19T04:57:50.544Z,20
2017-05-19T04:58:50.848Z,15
2017-05-19T04:59:50.536Z,15
2017-05-19T05:00:49.927Z,15
2017-05-19T05:01:50.544Z,15
2017-05-19T05:02:50.846Z,15
2017-05-19T05:03:50.530Z,15
2017-05-19T05:04:50.890Z,15
2017-05-19T05:05:50.536Z,15
2017-05-19T05:06:50.529Z,15
2017-05-19T05:07:50.832Z,15
2017-05-19T05:08:50.215Z,15
2017-05-19T05:09:50.821Z,10
2017-05-19T05:10:50.821Z,10
2017-05-19T05:11:50.814Z,15
2017-05-19T05:12:50.815Z,15
2017-05-19T05:13:50.713Z,15
2017-05-19T05:14:50.811Z,15
2017-05-19T05:15:50.506Z,15
2017-05-19T05:16:50.803Z,20
2017-05-19T05:17:50.197Z,20
2017-05-19T05:18:50.501Z,20
2017-05-19T05:19:50.491Z,20
2017-05-19T05:20:50.851Z,25
2017-05-19T05:21:50.493Z,25
2017-05-19T05:22:50.793Z,25
2017-05-19T05:23:50.480Z,25
2017-05-19T05:24:50.792Z,25
2017-05-19T05:25:50.783Z,20
2017-05-19T05:26:50.785Z,20
2017-05-19T05:27:50.470Z,20
2017-05-19T05:28:50.792Z,20
2017-05-19T05:29:50.779Z,20
2017-05-19T05:30:50.163Z,20
2017-05-19T05:31:50.773Z,15
2017-05-19T05:32:50.158Z,15
2017-05-19T05:33:50.777Z,15
2017-05-19T05:34:50.160Z,15
2017-05-19T05:35:50.764Z,15
2017-05-19T05:36:50.758Z,15
2017-05-19T05:37:50.764Z,15
2017-05-19T05:38:50.455Z,15
2017-05-19T05:39:50.755Z,15
2017-05-19T05:40:50.751Z,15
2017-05-19T05:41:50.745Z,10
2017-05-19T05:42:50.748Z,10
2017-05-19T05:43:50.745Z,10
2017-05-19T05:44:50.432Z,10
2017-05-19T05:45:50.432Z,15
2017-05-19T05:46:50.734Z,15
2017-05-19T05:47:50.738Z,15
2017-05-19T05:48:50.428Z,20
2017-05-19T05:49:50.727Z,20
2017-05-19T05:50:50.420Z,25
2017-05-19T05:51:50.113Z,25
2017-05-19T05:52:50.720Z,25
2017-05-19T05:53:50.425Z,20
2017-05-19T05:54:50.409Z,25
2017-05-19T05:55:50.419Z,25
2017-05-19T05:56:50.459Z,30
2017-05-19T05:57:50.712Z,30
2017-05-19T05:58:50.720Z,35
2017-05-19T05:59:50.098Z,40
2017-05-19T06:00:50.093Z,40
2017-05-19T06:01:50.702Z,45
2017-05-19T06:02:50.701Z,45
2017-05-19T06:03:50.394Z,50
2017-05-19T06:04:50.700Z,55
2017-05-19T06:05:50.692Z,55
2017-05-19T06:06:50.386Z,55
2017-05-19T06:07:50.135Z,60
2017-05-19T06:08:50.374Z,55
2017-05-19T06:09:50.075Z,55
2017-05-19T06:10:50.070Z,55
2017-05-19T06:11:50.067Z,55
2017-05-19T06:12:50.071Z,55
2017-05-19T06:13:50.679Z,55
2017-05-19T06:14:50.672Z,55
2017-05-19T06:15:50.366Z,50
2017-05-19T06:16:50.666Z,50
2017-05-19T06:17:50.667Z,50
2017-05-19T06:18:50.719Z,50
2017-05-19T06:19:50.659Z,55
2017-05-19T06:20:50.655Z,60
2017-05-19T06:21:50.656Z,60
2017-05-19T06:22:50.652Z,60
2017-05-19T06:23:50.650Z,60
2017-05-19T06:24:50.647Z,60
2017-05-19T06:25:50.645Z,65
2017-05-19T06:26:50.650Z,55
2017-05-19T06:27:50.637Z,55
2017-05-19T06:28:50.396Z,55
2017-05-19T06:29:50.340Z,50
2017-05-19T06:30:50.642Z,50
2017-05-19T06:31:50.332Z,45
2017-05-19T06:32:50.335Z,45
2017-05-19T06:33:50.019Z,45
2017-05-19T06:34:50.323Z,40
2017-05-19T06:35:50.322Z,40
2017-05-19T06:36:50.322Z,40
2017-05-19T06:37:50.622Z,40
2017-05-19T06:38:50.626Z,45
2017-05-19T06:39:50.627Z,45
2017-05-19T06:40:50.312Z,50
2017-05-19T06:41:50.314Z,50
2017-05-19T06:42:50.301Z,50
2017-05-19T06:43:50.613Z,45
2017-05-19T06:44:50.303Z,45
2017-05-19T06:45:50.602Z,45
2017-05-19T06:46:50.297Z,45
2017-05-19T06:47:50.603Z,50
2017-05-19T06:48:50.599Z,45
2017-05-19T06:49:49.990Z,45
2017-05-19T06:50:50.294Z,45
2017-05-19T06:51:50.588Z,45
2017-05-19T06:52:50.282Z,45
2017-05-19T06:53:50.605Z,45
2017-05-19T06:54:50.588Z,45
2017-05-19T06:55:49.970Z,45
2017-05-19T06:56:50.581Z,45
2017-05-19T06:57:50.275Z,45
2017-05-19T06:58:50.582Z,50
2017-05-19T06:59:50.279Z,50
2017-05-19T07:00:50.577Z,45
2017-05-19T07:01:50.264Z,45
2017-05-19T07:02:50.570Z,40
2017-05-19T07:03:49.960Z,35
2017-05-19T07:04:50.566Z,35
2017-05-19T07:05:50.263Z,30
2017-05-19T07:06:50.556Z,30
2017-05-19T07:07:50.564Z,30
2017-05-19T07:08:50.249Z,25
2017-05-19T07:09:50.251Z,25
2017-05-19T07:10:50.250Z,25
2017-05-19T07:11:50.544Z,25
2017-05-19T07:12:49.938Z,25
2017-05-19T07:13:50.242Z,30
2017-05-19T07:14:50.544Z,30
2017-05-19T07:15:50.544Z,30
2017-05-19T07:16:50.234Z,30
2017-05-19T07:17:50.229Z,30
2017-05-19T07:18:50.547Z,30
2017-05-19T07:19:50.224Z,30
2017-05-19T07:20:50.222Z,30
2017-05-19T07:21:50.231Z,30
2017-05-19T07:22:50.222Z,30
2017-05-19T07:23:50.221Z,30
2017-05-19T07:24:49.911Z,30
2017-05-19T07:25:49.907Z,35
2017-05-19T07:26:50.208Z,35
2017-05-19T07:27:50.211Z,35
2017-05-19T07:28:50.213Z,40
2017-05-19T07:29:50.203Z,45
2017-05-19T07:30:49.896Z,55
2017-05-19T07:31:50.199Z,60
2017-05-19T07:32:50.196Z,70
2017-05-19T07:33:50.507Z,70
2017-05-19T07:34:50.500Z,70
2017-05-19T07:35:50.184Z,65
2017-05-19T07:36:49.881Z,65
2017-05-19T07:37:50.490Z,65
2017-05-19T07:38:49.882Z,70
2017-05-19T07:39:50.185Z,70
2017-05-19T07:40:50.179Z,70
2017-05-19T07:41:50.485Z,70
2017-05-19T07:42:50.181Z,70
2017-05-19T07:43:50.492Z,70
2017-05-19T07:44:50.182Z,70
2017-05-19T07:45:50.165Z,70
2017-05-19T07:46:50.473Z,70
2017-05-19T07:47:50.471Z,70
2017-05-19T07:48:50.186Z,70
2017-05-19T07:49:50.165Z,75
2017-05-19T07:50:50.465Z,75
2017-05-19T07:51:50.462Z,75
2017-05-19T07:52:50.466Z,75
2017-05-19T07:53:50.464Z,75
2017-05-19T07:54:50.457Z,75
2017-05-19T07:55:50.455Z,75
2017-05-19T07:56:50.148Z,75
2017-05-19T07:57:50.453Z,80
2017-05-19T07:58:49.836Z,75
2017-05-19T07:59:50.455Z,70
2017-05-19T08:00:50.447Z,65
2017-05-19T08:01:50.136Z,60
2017-05-19T08:02:49.838Z,60
2017-05-19T08:03:50.440Z,55
2017-05-19T08:04:50.133Z,50
2017-05-19T08:05:50.433Z,45
2017-05-19T08:06:50.446Z,40
2017-05-19T08:07:50.428Z,30
2017-05-19T08:08:50.429Z,25
2017-05-19T08:09:50.178Z,25
2017-05-19T08:10:50.428Z,25
2017-05-19T08:11:50.420Z,20
2017-05-19T08:12:50.418Z,20
2017-05-19T08:13:50.427Z,20
2017-05-19T08:14:50.111Z,20
2017-05-19T08:15:49.805Z,20
2017-05-19T08:16:50.102Z,25
2017-05-19T08:17:50.410Z,25
2017-05-19T08:18:50.409Z,30
2017-05-19T08:19:50.407Z,30
2017-05-19T08:20:50.404Z,30
2017-05-19T08:21:50.404Z,30
2017-05-19T08:22:50.399Z,30
2017-05-19T08:23:50.091Z,30
2017-05-19T08:24:49.785Z,35
2017-05-19T08:25:50.400Z,35
2017-05-19T08:26:50.086Z,35
2017-05-19T08:27:50.084Z,30
2017-05-19T08:28:50.092Z,30
2017-05-19T08:29:50.079Z,25
2017-05-19T08:30:50.080Z,25
2017-05-19T08:31:50.384Z,25
2017-05-19T08:32:50.383Z,25
2017-05-19T08:33:50.406Z,30
2017-05-19T08:34:50.377Z,30
2017-05-19T08:35:50.375Z,30
2017-05-19T08:36:50.065Z,30
2017-05-19T08:37:50.065Z,35
2017-05-19T08:38:50.060Z,35
2017-05-19T08:39:50.364Z,35
2017-05-19T08:40:50.359Z,35
2017-05-19T08:41:49.743Z,40
2017-05-19T08:42:50.356Z,40
2017-05-19T08:43:50.356Z,45
2017-05-19T08:44:50.417Z,50
2017-05-19T08:45:50.349Z,55
2017-05-19T08:46:50.355Z,55
2017-05-19T08:47:50.345Z,65
2017-05-19T08:48:49.730Z,75
2017-05-19T08:49:50.341Z,70
2017-05-19T08:50:50.027Z,60
2017-05-19T08:51:50.335Z,60
2017-05-19T08:52:50.389Z,60
2017-05-19T08:53:49.417Z,60
2017-05-19T08:54:49.719Z,55
2017-05-19T08:55:50.020Z,55
2017-05-19T08:56:50.023Z,55
2017-05-19T08:57:50.029Z,60
2017-05-19T08:58:50.018Z,60
2017-05-19T08:59:50.011Z,60
2017-05-19T09:00:50.011Z,60
2017-05-19T09:01:50.009Z,55
2017-05-19T09:02:50.008Z,55
2017-05-19T09:03:50.347Z,60
2017-05-19T09:04:50.001Z,60
2017-05-19T09:05:49.385Z,65
2017-05-19T09:06:49.390Z,70
2017-05-19T09:07:49.997Z,60
2017-05-19T09:08:50.300Z,45
2017-05-19T09:09:50.302Z,35
2017-05-19T09:10:49.987Z,35
2017-05-19T09:11:50.289Z,35
2017-05-19T09:12:50.288Z,40
2017-05-19T09:13:49.680Z,50
2017-05-19T09:14:50.286Z,55
2017-05-19T09:15:49.673Z,60
2017-05-19T09:16:49.727Z,60
2017-05-19T09:17:49.971Z,50
2017-05-19T09:18:49.667Z,45
2017-05-19T09:19:49.669Z,35
2017-05-19T09:20:49.969Z,30
2017-05-19T09:21:50.269Z,30
2017-05-19T09:22:50.276Z,30
2017-05-19T09:23:49.666Z,30
2017-05-19T09:24:50.266Z,30
2017-05-19T09:25:49.959Z,35
2017-05-19T09:26:50.259Z,40
2017-05-19T09:27:49.655Z,45
2017-05-19T09:28:49.953Z,45
2017-05-19T09:29:50.253Z,45
2017-05-19T09:30:50.253Z,45
2017-05-19T09:31:50.248Z,50
2017-05-19T09:32:50.244Z,50
2017-05-19T09:33:50.249Z,45
2017-05-19T09:34:50.245Z,45
2017-05-19T09:35:49.933Z,40
2017-05-19T09:36:49.941Z,35
2017-05-19T09:37:50.240Z,30
2017-05-19T09:38:50.235Z,30
2017-05-19T09:39:49.927Z,30
2017-05-19T09:40:50.229Z,35
2017-05-19T09:41:49.927Z,35
2017-05-19T09:42:49.918Z,35
2017-05-19T09:43:49.928Z,35
2017-05-19T09:44:50.229Z,35
2017-05-19T09:45:49.915Z,40
2017-05-19T09:46:49.295Z,45
2017-05-19T09:47:50.215Z,55
2017-05-19T09:48:50.212Z,65
2017-05-19T09:49:50.208Z,65
2017-05-19T09:50:49.597Z,60
2017-05-19T09:51:50.206Z,60
2017-05-19T09:52:49.907Z,60
2017-05-19T09:53:49.588Z,60
2017-05-19T09:54:49.931Z,60
2017-05-19T09:55:49.889Z,55
2017-05-19T09:56:49.893Z,55
2017-05-19T09:57:49.581Z,50
2017-05-19T09:58:50.219Z,50
2017-05-19T09:59:50.189Z,55
2017-05-19T10:00:49.884Z,60
2017-05-19T10:01:49.880Z,65
2017-05-19T10:02:49.874Z,60
2017-05-19T10:03:50.185Z,50
2017-05-19T10:04:49.563Z,45
2017-05-19T10:05:50.190Z,40
2017-05-19T10:06:50.175Z,40
2017-05-19T10:07:49.863Z,45
2017-05-19T10:08:50.172Z,50
2017-05-19T10:09:49.552Z,45
2017-05-19T10:10:50.170Z,45
2017-05-19T10:11:49.853Z,45
2017-05-19T10:12:49.547Z,45
2017-05-19T10:13:50.163Z,40
2017-05-19T10:14:49.853Z,40
2017-05-19T10:15:49.848Z,45
2017-05-19T10:16:50.152Z,45
2017-05-19T10:17:49.537Z,45
2017-05-19T10:18:50.163Z,45
2017-05-19T10:19:49.836Z,50
2017-05-19T10:20:50.143Z,50
2017-05-19T10:21:49.832Z,55
2017-05-19T10:22:50.141Z,60
2017-05-19T10:23:50.134Z,55
2017-05-19T10:24:50.136Z,55
2017-05-19T10:25:49.829Z,55
2017-05-19T10:26:49.821Z,60
2017-05-19T10:27:49.822Z,65
2017-05-19T10:28:49.833Z,60
2017-05-19T10:29:50.120Z,50
2017-05-19T10:30:49.811Z,45
2017-05-19T10:31:49.508Z,45
2017-05-19T10:32:50.131Z,40
2017-05-19T10:33:49.819Z,45
2017-05-19T10:34:49.500Z,45
2017-05-19T10:35:50.105Z,45
2017-05-19T10:36:50.106Z,40
2017-05-19T10:37:50.104Z,40
2017-05-19T10:38:49.492Z,35
2017-05-19T10:39:50.099Z,35
2017-05-19T10:40:49.788Z,30
2017-05-19T10:41:50.095Z,30
2017-05-19T10:42:49.803Z,30
2017-05-19T10:43:50.099Z,30
2017-05-19T10:44:50.084Z,30
2017-05-19T10:45:50.085Z,30
2017-05-19T10:46:49.780Z,30
2017-05-19T10:47:50.077Z,35
2017-05-19T10:48:50.076Z,35
2017-05-19T10:49:50.076Z,40
2017-05-19T10:50:49.766Z,35
2017-05-19T10:51:49.768Z,35
2017-05-19T10:52:50.077Z,35
2017-05-19T10:53:50.072Z,35
2017-05-19T10:54:50.065Z,35
2017-05-19T10:55:50.064Z,35
2017-05-19T10:56:50.062Z,35
2017-05-19T10:57:50.057Z,35
2017-05-19T10:58:50.066Z,35
2017-05-19T10:59:49.753Z,35
2017-05-19T11:00:50.045Z,35
2017-05-19T11:01:50.049Z,35
2017-05-19T11:02:49.740Z,30
2017-05-19T11:03:49.741Z,25
2017-05-19T11:04:50.041Z,20
2017-05-19T11:05:50.106Z,20
2017-05-19T11:06:50.039Z,15
2017-05-19T11:07:49.725Z,20
2017-05-19T11:08:49.729Z,20
2017-05-19T11:09:49.725Z,20
2017-05-19T11:10:50.023Z,20
2017-05-19T11:11:50.018Z,20
2017-05-19T11:12:50.084Z,25
2017-05-19T11:13:49.716Z,25
2017-05-19T11:14:50.014Z,25
2017-05-19T11:15:50.018Z,25
2017-05-19T11:16:49.706Z,25
2017-05-19T11:17:49.730Z,25
2017-05-19T11:18:50.019Z,25
2017-05-19T11:19:50.004Z,30
2017-05-19T11:20:50.002Z,30
2017-05-19T11:21:49.690Z,30
2017-05-19T11:22:49.687Z,35
2017-05-19T11:23:49.997Z,40
2017-05-19T11:24:49.995Z,35
2017-05-19T11:25:50.234Z,35
2017-05-19T11:26:49.988Z,30
2017-05-19T11:27:49.987Z,25
2017-05-19T11:28:49.684Z,25
2017-05-19T11:29:49.669Z,20
2017-05-19T11:30:49.980Z,25
2017-05-19T11:31:49.117Z,25
2017-05-19T11:32:49.360Z,25
2017-05-19T11:33:49.667Z,25
2017-05-19T11:34:49.663Z,25
2017-05-19T11:35:49.148Z,25
2017-05-19T11:36:49.838Z,20
2017-05-19T11:37:49.613Z,25
2017-05-19T11:38:49.933Z,25
2017-05-19T11:39:50.255Z,30
2017-05-19T11:40:49.869Z,30
2017-05-19T11:41:49.520Z,30
2017-05-19T11:42:50.164Z,35
2017-05-19T11:43:49.509Z,40
2017-05-19T11:44:49.545Z,40
2017-05-19T11:45:49.536Z,35
2017-05-19T11:46:49.613Z,30
2017-05-19T11:47:49.530Z,25
2017-05-19T11:48:49.581Z,20
2017-05-19T11:49:49.587Z,20
2017-05-19T11:50:49.593Z,15
2017-05-19T11:51:49.555Z,15
2017-05-19T11:52:49.220Z,15
2017-05-19T11:53:49.543Z,20
2017-05-19T11:54:49.548Z,15
2017-05-19T11:55:49.795Z,15
2017-05-19T11:56:49.220Z,15
2017-05-19T11:57:49.193Z,15
2017-05-19T11:58:49.525Z,15
2017-05-19T11:59:49.241Z,20
2017-05-19T12:00:49.491Z,25
2017-05-19T12:01:49.868Z,30
2017-05-19T12:02:49.844Z,30
2017-05-19T12:03:49.842Z,35
2017-05-19T12:04:49.827Z,35
2017-05-19T12:05:49.476Z,35
2017-05-19T12:06:48.858Z,35
2017-05-19T12:07:50.139Z,30
2017-05-19T12:08:49.216Z,25
2017-05-19T12:09:49.568Z,25
2017-05-19T12:10:48.959Z,25
2017-05-19T12:11:49.272Z,30
2017-05-19T12:12:49.876Z,25
2017-05-19T12:13:49.564Z,25
2017-05-19T12:14:49.559Z,30
2017-05-19T12:15:49.249Z,25
2017-05-19T12:16:49.248Z,25
2017-05-19T12:17:49.251Z,30
2017-05-19T12:18:48.939Z,30
2017-05-19T12:19:48.936Z,30
2017-05-19T12:20:49.232Z,35
2017-05-19T12:21:49.540Z,30
2017-05-19T12:22:49.537Z,35
2017-05-19T12:23:49.839Z,40
2017-05-19T12:24:49.528Z,50
2017-05-19T12:25:49.222Z,65
2017-05-19T12:26:49.522Z,65
2017-05-19T12:27:49.221Z,60
2017-05-19T12:28:48.913Z,60
2017-05-19T12:29:49.210Z,55
2017-05-19T12:30:48.895Z,50
2017-05-19T12:31:48.904Z,50
2017-05-19T12:32:49.206Z,55
2017-05-19T12:33:49.202Z,55
2017-05-19T12:34:49.194Z,50
2017-05-19T12:35:49.498Z,55
2017-05-19T12:36:48.889Z,60
2017-05-19T12:37:49.490Z,60
2017-05-19T12:38:49.507Z,60
2017-05-19T12:39:49.238Z,60
2017-05-19T12:40:49.187Z,65
2017-05-19T12:41:49.490Z,70
2017-05-19T12:42:49.792Z,75
2017-05-19T12:43:49.487Z,70
2017-05-19T12:44:49.181Z,75
2017-05-19T12:45:49.165Z,80
2017-05-19T12:46:48.861Z,80
2017-05-19T12:47:49.793Z,75
2017-05-19T12:48:49.771Z,65
2017-05-19T12:49:49.770Z,55
2017-05-19T12:50:49.460Z,60
2017-05-19T12:51:49.462Z,60
2017-05-19T12:52:49.454Z,60
2017-05-19T12:53:49.767Z,65
2017-05-19T12:54:49.760Z,60
2017-05-19T12:55:49.448Z,60
2017-05-19T12:56:49.138Z,50
2017-05-19T12:57:49.453Z,50
2017-05-19T12:58:49.447Z,50
2017-05-19T12:59:49.439Z,50
2017-05-19T13:00:49.438Z,50
2017-05-19T13:01:49.738Z,50
2017-05-19T13:02:49.434Z,50
2017-05-19T13:03:49.429Z,50
2017-05-19T13:04:49.125Z,55
2017-05-19T13:05:49.115Z,50
2017-05-19T13:06:49.729Z,55
2017-05-19T13:07:49.419Z,55
2017-05-19T13:08:49.725Z,55
2017-05-19T13:09:49.725Z,55
2017-05-19T13:10:49.715Z,55
2017-05-19T13:11:49.414Z,55
2017-05-19T13:12:48.804Z,55
2017-05-19T13:13:49.405Z,60
2017-05-19T13:14:49.401Z,55
2017-05-19T13:15:49.404Z,60
2017-05-19T13:16:48.786Z,65
2017-05-19T13:17:49.399Z,65
2017-05-19T13:18:49.393Z,65
2017-05-19T13:19:49.691Z,65
2017-05-19T13:20:49.389Z,70
2017-05-19T13:21:49.393Z,70
2017-05-19T13:22:49.076Z,65
2017-05-19T13:23:49.378Z,65
2017-05-19T13:24:49.373Z,65
2017-05-19T13:25:49.683Z,65
2017-05-19T13:26:49.377Z,60
2017-05-19T13:27:49.678Z,60
2017-05-19T13:28:49.680Z,60
2017-05-19T13:29:49.055Z,55
2017-05-19T13:30:49.355Z,55
2017-05-19T13:31:49.361Z,60
2017-05-19T13:32:49.675Z,55
2017-05-19T13:33:49.349Z,55
2017-05-19T13:34:49.049Z,55
2017-05-19T13:35:49.654Z,55
2017-05-19T13:36:49.344Z,55
2017-05-19T13:37:49.049Z,55
2017-05-19T13:38:49.351Z,55
2017-05-19T13:39:49.038Z,55
2017-05-19T13:40:49.030Z,60
2017-05-19T13:41:49.029Z,65
2017-05-19T13:42:49.329Z,60
2017-05-19T13:43:49.331Z,60
2017-05-19T13:44:49.327Z,65
2017-05-19T13:45:49.330Z,65
2017-05-19T13:46:49.017Z,70
2017-05-19T13:47:49.322Z,70
2017-05-19T13:48:49.011Z,75
2017-05-19T13:49:49.314Z,75
2017-05-19T13:50:49.621Z,85
2017-05-19T13:51:49.613Z,80
2017-05-19T13:52:49.306Z,85
2017-05-19T13:53:49.300Z,80
2017-05-19T13:54:49.196Z,85
2017-05-19T13:55:49.297Z,90
2017-05-19T13:56:49.598Z,90
2017-05-19T13:57:49.600Z,85
2017-05-19T13:58:48.985Z,85
2017-05-19T13:59:49.597Z,80
2017-05-19T14:00:49.598Z,85
2017-05-19T14:01:49.283Z,85
2017-05-19T14:02:49.281Z,80
2017-05-19T14:03:49.273Z,75
2017-05-19T14:04:49.275Z,70
2017-05-19T14:05:49.272Z,65
2017-05-19T14:06:49.273Z,55
2017-05-19T14:07:49.271Z,50
2017-05-19T14:08:48.958Z,40
2017-05-19T14:09:48.964Z,40
2017-05-19T14:10:49.257Z,40
2017-05-19T14:11:49.560Z,35
2017-05-19T14:12:49.557Z,35
2017-05-19T14:13:49.557Z,35
2017-05-19T14:14:49.560Z,35
2017-05-19T14:15:49.555Z,30
2017-05-19T14:16:49.548Z,30
2017-05-19T14:17:49.558Z,30
2017-05-19T14:18:48.632Z,30
2017-05-19T14:19:49.545Z,30
2017-05-19T14:20:49.537Z,25
2017-05-19T14:21:49.538Z,25
2017-05-19T14:22:49.536Z,25
2017-05-19T14:23:49.226Z,25
2017-05-19T14:24:49.226Z,25